createdAt,value
2022-12-06T00:00:42.466Z,12.15
2022-12-06T00:03:27.371Z,12.20
2022-12-06T00:06:15.758Z,14.87
2022-12-06T00:09:00.992Z,12.18
2022-12-06T00:11:46.076Z,11.75
2022-12-06T00:14:31.146Z,10.77
2022-12-06T00:17:16.037Z,10.60
2022-12-06T00:20:01.636Z,12.13
2022-12-06T00:22:46.915Z,11.52
2022-12-06T00:25:35.410Z,10.73
2022-12-06T00:28:20.635Z,11.77
2022-12-06T00:31:14.816Z,14.57
2022-12-06T00:34:00.604Z,12.00
2022-12-06T00:36:45.694Z,9.93
2022-12-06T00:39:30.736Z,12.48
2022-12-06T00:42:15.828Z,11.65
2022-12-06T00:45:00.957Z,13.27
2022-12-06T00:47:46.011Z,10.33
2022-12-06T00:50:31.222Z,12.57
2022-12-06T00:53:16.878Z,10.60
2022-12-06T00:56:01.759Z,12.40
2022-12-06T00:58:47.575Z,9.55
2022-12-06T01:01:35.887Z,13.10
2022-12-06T01:04:20.745Z,11.45
2022-12-06T01:07:06.029Z,13.13
2022-12-06T01:09:50.851Z,10.30
2022-12-06T01:12:35.936Z,13.40
2022-12-06T01:15:20.742Z,14.13
2022-12-06T01:18:05.958Z,11.57
2022-12-06T01:20:51.008Z,11.15
2022-12-06T01:23:36.190Z,12.35
2022-12-06T01:26:24.230Z,14.00
2022-12-06T01:29:09.757Z,12.13
2022-12-06T01:31:54.977Z,14.55
2022-12-06T01:34:40.185Z,14.98
2022-12-06T01:37:25.386Z,14.20
2022-12-06T01:40:11.798Z,11.80
2022-12-06T01:42:56.548Z,9.90
2022-12-06T01:45:41.910Z,14.90
2022-12-06T01:48:27.329Z,19.45
2022-12-06T01:51:15.679Z,14.63
2022-12-06T01:54:03.650Z,14.85
2022-12-06T01:56:50.450Z,10.40
2022-12-06T01:59:36.533Z,12.88
2022-12-06T02:02:21.940Z,12.55
2022-12-06T02:05:08.114Z,13.25
2022-12-06T02:07:54.704Z,10.52
2022-12-06T02:10:39.986Z,13.00
2022-12-06T02:13:25.828Z,10.27
2022-12-06T02:16:26.920Z,13.90
2022-12-06T02:19:30.047Z,13.20
2022-12-06T02:22:28.158Z,15.27
2022-12-06T02:25:50.588Z,12.80
2022-12-06T02:29:03.325Z,14.15
2022-12-06T02:31:59.227Z,11.48
2022-12-06T02:35:08.825Z,17.55
2022-12-06T02:38:21.497Z,10.05
2022-12-06T02:41:11.934Z,13.27
2022-12-06T02:44:03.004Z,14.52
2022-12-06T02:46:50.818Z,14.52
2022-12-06T02:49:39.036Z,14.70
2022-12-06T02:52:27.468Z,14.05
2022-12-06T02:55:13.666Z,14.43
2022-12-06T02:57:58.936Z,10.80
2022-12-06T03:00:46.832Z,12.32
2022-12-06T03:03:51.191Z,18.35
2022-12-06T03:07:05.304Z,12.75
2022-12-06T03:10:22.082Z,18.20
2022-12-06T03:13:16.612Z,13.20
2022-12-06T03:16:13.890Z,17.00
2022-12-06T03:19:06.410Z,12.50
2022-12-06T03:21:56.644Z,13.23
2022-12-06T03:24:43.222Z,13.83
2022-12-06T03:27:31.320Z,12.23
2022-12-06T03:30:16.645Z,17.27
2022-12-06T03:33:02.808Z,13.32
2022-12-06T03:35:52.112Z,15.73
2022-12-06T03:38:44.219Z,14.90
2022-12-06T03:41:34.039Z,14.50
2022-12-06T03:44:19.540Z,13.02
2022-12-06T03:47:25.232Z,14.70
2022-12-06T03:50:18.050Z,13.30
2022-12-06T03:53:03.010Z,13.70
2022-12-06T03:55:48.510Z,14.55
2022-12-06T03:58:33.333Z,16.50
2022-12-06T04:01:18.373Z,14.85
2022-12-06T04:04:04.099Z,17.88
2022-12-06T04:06:49.435Z,16.23
2022-12-06T04:09:52.949Z,15.70
2022-12-06T04:12:56.542Z,18.60
2022-12-06T04:15:41.776Z,16.20
2022-12-06T04:18:27.770Z,14.38
2022-12-06T04:21:31.042Z,15.97
2022-12-06T04:24:16.248Z,15.77
2022-12-06T04:27:21.342Z,17.38
2022-12-06T04:30:25.746Z,15.60
2022-12-06T04:33:29.310Z,13.93
2022-12-06T04:36:33.388Z,16.43
2022-12-06T04:39:21.002Z,16.85
2022-12-06T04:42:25.362Z,14.90
2022-12-06T04:45:10.882Z,14.85
2022-12-06T04:47:56.166Z,17.40
2022-12-06T04:50:46.313Z,24.33
2022-12-06T04:53:31.599Z,12.50
2022-12-06T04:56:17.161Z,13.85
2022-12-06T04:59:02.020Z,16.30
2022-12-06T05:01:47.021Z,14.05
2022-12-06T05:04:33.073Z,13.53
2022-12-06T05:07:17.980Z,22.75
2022-12-06T05:10:03.933Z,16.00
2022-12-06T05:12:48.922Z,18.30
2022-12-06T05:15:34.077Z,13.15
2022-12-06T05:18:19.195Z,14.83
2022-12-06T05:21:23.772Z,15.00
2022-12-06T05:24:09.203Z,12.18
2022-12-06T05:26:54.150Z,15.30
2022-12-06T05:29:39.358Z,13.48
2022-12-06T05:32:24.500Z,13.77
2022-12-06T05:35:09.466Z,14.77
2022-12-06T05:37:55.259Z,15.63
2022-12-06T05:40:41.144Z,16.50
2022-12-06T05:43:26.142Z,12.10
2022-12-06T05:46:11.431Z,14.57
2022-12-06T05:48:56.439Z,14.82
2022-12-06T05:51:41.519Z,14.77
2022-12-06T05:54:26.440Z,15.70
2022-12-06T05:57:11.685Z,13.73
2022-12-06T05:59:56.844Z,13.73
2022-12-06T06:02:42.225Z,14.95
2022-12-06T06:05:27.561Z,12.95
2022-12-06T06:08:12.906Z,14.25
2022-12-06T06:10:58.828Z,11.57
2022-12-06T06:13:44.046Z,12.57
2022-12-06T06:16:29.305Z,14.07
2022-12-06T06:19:14.409Z,14.00
2022-12-06T06:21:59.303Z,13.18
2022-12-06T06:24:44.660Z,12.15
2022-12-06T06:27:33.721Z,13.67
2022-12-06T06:30:18.818Z,12.52
2022-12-06T06:33:04.112Z,13.88
2022-12-06T06:35:48.938Z,12.52
2022-12-06T06:38:34.344Z,13.50
2022-12-06T06:41:19.238Z,13.03
2022-12-06T06:44:04.315Z,17.05
2022-12-06T06:46:49.281Z,13.85
2022-12-06T06:49:34.490Z,15.55
2022-12-06T06:52:19.943Z,10.55
2022-12-06T06:55:05.359Z,12.93
2022-12-06T06:57:50.342Z,14.00
2022-12-06T07:00:36.222Z,14.45
2022-12-06T07:03:21.938Z,13.25
2022-12-06T07:06:09.677Z,10.80
2022-12-06T07:08:54.727Z,12.77
2022-12-06T07:11:40.237Z,12.48
2022-12-06T07:14:25.302Z,11.82
2022-12-06T07:17:10.535Z,10.90
2022-12-06T07:19:56.183Z,11.82
2022-12-06T07:22:41.185Z,12.87
2022-12-06T07:25:26.168Z,9.77
2022-12-06T07:28:11.382Z,12.75
2022-12-06T07:30:56.717Z,11.13
2022-12-06T07:33:42.670Z,14.38
2022-12-06T07:36:30.898Z,18.03
2022-12-06T07:39:15.905Z,13.98
2022-12-06T07:42:19.599Z,13.57
2022-12-06T07:45:07.216Z,14.02
2022-12-06T07:47:52.225Z,13.98
2022-12-06T07:50:37.373Z,12.93
2022-12-06T07:53:22.338Z,14.52
2022-12-06T07:56:08.246Z,15.43
2022-12-06T07:58:53.249Z,23.85
2022-12-06T08:01:38.590Z,15.95
2022-12-06T08:04:23.588Z,28.77
2022-12-06T08:07:08.678Z,20.58
2022-12-06T08:09:53.979Z,14.10
2022-12-06T08:12:39.233Z,16.45
2022-12-06T08:15:24.150Z,21.00
2022-12-06T08:18:09.353Z,29.67
2022-12-06T08:20:55.129Z,19.52
2022-12-06T08:23:40.255Z,18.38
2022-12-06T08:26:25.323Z,22.65
2022-12-06T08:29:10.130Z,20.10
2022-12-06T08:31:55.219Z,19.87
2022-12-06T08:34:40.345Z,22.33
2022-12-06T08:37:25.226Z,20.08
2022-12-06T08:40:10.724Z,17.42
2022-12-06T08:42:55.466Z,17.95
2022-12-06T08:45:40.912Z,18.27
2022-12-06T08:48:27.076Z,13.98
2022-12-06T08:51:11.962Z,23.00
2022-12-06T08:53:57.841Z,15.75
2022-12-06T08:56:42.812Z,15.95
2022-12-06T08:59:27.735Z,15.90
2022-12-06T09:02:12.802Z,18.13
2022-12-06T09:04:57.938Z,14.82
2022-12-06T09:07:42.982Z,15.35
2022-12-06T09:10:27.918Z,18.25
2022-12-06T09:13:12.923Z,15.87
2022-12-06T09:15:58.082Z,16.95
2022-12-06T09:18:44.062Z,14.52
2022-12-06T09:21:30.408Z,12.23
2022-12-06T09:24:17.428Z,16.15
2022-12-06T09:27:02.447Z,16.13
2022-12-06T09:29:47.558Z,14.68
2022-12-06T09:32:32.831Z,19.00
2022-12-06T09:35:23.507Z,14.63
2022-12-06T09:38:09.952Z,14.68
2022-12-06T09:41:33.724Z,20.23
2022-12-06T09:44:36.430Z,21.98
2022-12-06T09:47:50.900Z,17.88
2022-12-06T09:50:42.539Z,15.77
2022-12-06T09:53:55.318Z,14.10
2022-12-06T09:56:49.972Z,13.80
2022-12-06T09:59:44.509Z,14.85
2022-12-06T10:02:48.264Z,12.30
2022-12-06T10:06:00.663Z,12.95
2022-12-06T10:09:04.657Z,12.40
2022-12-06T10:12:28.510Z,11.90
2022-12-06T10:15:30.595Z,9.95
2022-12-06T10:18:30.152Z,11.63
2022-12-06T10:21:25.322Z,11.82
2022-12-06T10:24:22.706Z,14.38
2022-12-06T10:27:12.480Z,12.87
2022-12-06T10:30:11.507Z,15.55
2022-12-06T10:33:03.741Z,13.32
2022-12-06T10:36:01.010Z,13.32
2022-12-06T10:38:53.094Z,12.70
2022-12-06T10:41:54.764Z,12.37
2022-12-06T10:44:46.733Z,13.93
2022-12-06T10:47:41.538Z,12.38
2022-12-06T10:50:33.298Z,13.10
2022-12-06T10:53:22.332Z,15.63
2022-12-06T10:56:18.332Z,12.83
2022-12-06T10:59:27.309Z,14.55
2022-12-06T11:02:42.980Z,16.42
2022-12-06T11:05:48.429Z,10.35
2022-12-06T11:08:39.699Z,14.57
2022-12-06T11:11:30.551Z,13.90
2022-12-06T11:14:25.258Z,13.68
2022-12-06T11:17:34.135Z,14.20
2022-12-06T11:20:28.638Z,13.77
2022-12-06T11:23:35.674Z,15.98
2022-12-06T11:26:37.426Z,12.13
2022-12-06T11:29:22.604Z,12.73
2022-12-06T11:32:07.954Z,14.93
2022-12-06T11:34:56.758Z,12.82
2022-12-06T11:37:44.622Z,10.73
2022-12-06T11:40:32.489Z,12.97
2022-12-06T11:43:24.125Z,14.43
2022-12-06T11:46:12.701Z,12.52
2022-12-06T11:49:14.274Z,14.10
2022-12-06T11:52:04.540Z,16.42
2022-12-06T11:55:00.025Z,15.27
2022-12-06T11:58:08.415Z,14.40
2022-12-06T12:01:11.930Z,13.77
2022-12-06T12:03:56.734Z,13.60
2022-12-06T12:06:42.069Z,12.20
2022-12-06T12:09:31.754Z,15.27
2022-12-06T12:12:23.050Z,12.82
2022-12-06T12:15:16.998Z,12.75
2022-12-06T12:18:03.611Z,11.80
2022-12-06T12:20:49.440Z,13.43
2022-12-06T12:23:38.272Z,14.60
2022-12-06T12:26:23.994Z,13.68
2022-12-06T12:29:17.091Z,16.77
2022-12-06T12:32:11.436Z,11.88
2022-12-06T12:34:56.307Z,12.52
2022-12-06T12:37:41.589Z,12.33
2022-12-06T12:40:36.507Z,14.23
2022-12-06T12:43:24.501Z,11.02
2022-12-06T12:46:09.550Z,12.60
2022-12-06T12:48:55.023Z,12.50
2022-12-06T12:51:43.679Z,7.63
2022-12-06T12:54:37.623Z,8.23
2022-12-06T12:57:23.032Z,12.93
2022-12-06T13:00:15.468Z,7.85
2022-12-06T13:03:14.134Z,7.85
2022-12-06T13:06:58.729Z,10.83
2022-12-06T13:09:54.097Z,13.60
2022-12-06T13:12:47.218Z,7.03
2022-12-06T13:15:37.936Z,8.23
2022-12-06T13:18:33.779Z,9.02
2022-12-06T13:21:31.657Z,9.07
2022-12-06T13:24:27.407Z,12.48
2022-12-06T13:27:19.318Z,11.80
2022-12-06T13:30:09.065Z,8.82
2022-12-06T13:32:58.379Z,9.40
2022-12-06T13:35:52.436Z,13.93
2022-12-06T13:38:39.180Z,8.80
2022-12-06T13:41:55.145Z,11.93
2022-12-06T13:44:52.973Z,11.80
2022-12-06T13:47:39.673Z,11.90
2022-12-06T13:50:24.430Z,10.27
2022-12-06T13:53:09.273Z,10.27
2022-12-06T13:56:03.298Z,12.57
2022-12-06T13:58:54.537Z,9.43
2022-12-06T14:01:48.626Z,8.82
2022-12-06T14:07:33.520Z,12.07
2022-12-06T14:10:18.680Z,8.68
2022-12-06T14:13:04.593Z,8.70
2022-12-06T14:15:52.105Z,10.00
2022-12-06T14:18:40.635Z,7.10
2022-12-06T14:21:37.504Z,7.53
2022-12-06T14:24:36.004Z,11.00
2022-12-06T14:27:23.469Z,11.40
2022-12-06T14:30:25.873Z,10.02
2022-12-06T14:33:23.916Z,11.07
2022-12-06T14:36:25.206Z,14.07
2022-12-06T14:39:20.197Z,8.48
2022-12-06T14:42:38.037Z,8.50
2022-12-06T14:45:23.381Z,10.77
2022-12-06T14:48:11.952Z,10.30
2022-12-06T14:50:56.982Z,8.88
2022-12-06T14:53:43.175Z,12.75
2022-12-06T14:56:32.699Z,8.82
2022-12-06T14:59:38.085Z,10.50
2022-12-06T15:02:29.161Z,9.37
2022-12-06T15:05:34.406Z,9.43
2022-12-06T15:08:25.588Z,13.55
2022-12-06T15:11:13.055Z,9.43
2022-12-06T15:14:16.252Z,7.15
2022-12-06T15:17:14.849Z,8.47
2022-12-06T15:20:00.407Z,9.00
2022-12-06T15:22:46.241Z,9.75
2022-12-06T15:25:31.013Z,8.98
2022-12-06T15:28:19.810Z,11.18
2022-12-06T15:31:07.140Z,9.50
2022-12-06T15:33:52.459Z,8.05
2022-12-06T15:36:37.642Z,7.53
2022-12-06T15:39:23.108Z,6.68
2022-12-06T15:42:21.654Z,10.98
2022-12-06T15:45:14.799Z,11.77
2022-12-06T15:47:59.809Z,9.15
2022-12-06T15:50:45.024Z,11.27
2022-12-06T15:53:30.378Z,8.30
2022-12-06T15:56:18.953Z,12.70
2022-12-06T15:59:03.958Z,11.83
2022-12-06T16:01:53.380Z,15.25
2022-12-06T16:04:38.075Z,11.68
2022-12-06T16:07:23.208Z,15.38
2022-12-06T16:10:08.499Z,12.77
2022-12-06T16:13:11.981Z,15.07
2022-12-06T16:15:57.190Z,11.00
2022-12-06T16:18:42.222Z,10.52
2022-12-06T16:21:30.069Z,12.82
2022-12-06T16:24:15.296Z,10.75
2022-12-06T16:27:00.082Z,11.20
2022-12-06T16:29:45.246Z,12.68
2022-12-06T16:32:30.377Z,11.57
2022-12-06T16:35:15.451Z,11.23
2022-12-06T16:38:00.623Z,11.80
2022-12-06T16:40:46.576Z,9.40
2022-12-06T16:43:31.775Z,11.57
2022-12-06T16:46:23.312Z,10.35
2022-12-06T16:52:27.541Z,9.13
2022-12-06T16:55:12.687Z,11.40
2022-12-06T16:57:58.205Z,10.60
2022-12-06T17:00:43.493Z,12.07
2022-12-06T17:03:28.213Z,10.50
2022-12-06T17:06:13.568Z,13.23
2022-12-06T17:08:58.854Z,11.47
2022-12-06T17:12:02.585Z,12.23
2022-12-06T17:14:47.540Z,11.23
2022-12-06T17:17:32.594Z,12.45
2022-12-06T17:20:18.873Z,9.85
2022-12-06T17:23:03.702Z,11.50
2022-12-06T17:25:56.643Z,8.93
2022-12-06T17:28:41.661Z,8.70
2022-12-06T17:31:26.992Z,10.88
2022-12-06T17:34:13.579Z,11.18
2022-12-06T17:36:58.863Z,20.30
2022-12-06T17:39:44.347Z,15.63
2022-12-06T17:42:47.925Z,10.82
2022-12-06T17:45:33.163Z,13.05
2022-12-06T17:48:18.335Z,14.15
2022-12-06T17:51:05.224Z,12.70
2022-12-06T17:53:50.319Z,10.52
2022-12-06T17:56:37.902Z,12.73
2022-12-06T17:59:29.269Z,7.35
2022-12-06T18:02:19.105Z,12.23
2022-12-06T18:05:05.359Z,12.37
2022-12-06T18:07:50.512Z,9.23
2022-12-06T18:10:35.513Z,8.98
2022-12-06T18:13:20.297Z,11.55
2022-12-06T18:16:15.363Z,7.68
2022-12-06T18:19:08.482Z,8.73
2022-12-06T18:21:53.645Z,14.50
2022-12-06T18:24:38.628Z,8.20
2022-12-06T18:27:23.520Z,12.43
2022-12-06T18:30:09.106Z,11.57
2022-12-06T18:32:54.164Z,11.97
2022-12-06T18:35:39.272Z,10.70
2022-12-06T18:38:24.180Z,14.27
2022-12-06T18:41:12.570Z,10.13
2022-12-06T18:44:00.191Z,13.13
2022-12-06T18:46:45.020Z,13.03
2022-12-06T18:49:30.149Z,11.15
2022-12-06T18:52:14.921Z,15.55
2022-12-06T18:55:00.254Z,11.38
2022-12-06T18:57:45.545Z,14.15
2022-12-06T19:00:30.777Z,14.43
2022-12-06T19:03:16.113Z,14.82
2022-12-06T19:06:08.873Z,15.13
2022-12-06T19:08:56.270Z,11.05
2022-12-06T19:11:43.554Z,11.63
2022-12-06T19:14:28.236Z,16.20
2022-12-06T19:17:13.677Z,13.60
2022-12-06T19:19:58.564Z,11.65
2022-12-06T19:22:43.655Z,14.20
2022-12-06T19:25:28.689Z,14.23
2022-12-06T19:28:13.794Z,14.23
2022-12-06T19:31:04.011Z,14.15
2022-12-06T19:33:50.310Z,13.35
2022-12-06T19:36:35.148Z,14.48
2022-12-06T19:39:20.874Z,13.98
2022-12-06T19:42:24.225Z,16.20
2022-12-06T19:45:09.707Z,16.52
2022-12-06T19:47:55.337Z,15.93
2022-12-06T19:50:40.238Z,14.43
2022-12-06T19:53:25.110Z,15.68
2022-12-06T19:56:13.557Z,14.00
2022-12-06T19:58:58.949Z,16.67
2022-12-06T20:01:45.710Z,15.15
2022-12-06T20:04:36.158Z,11.82
2022-12-06T20:07:21.195Z,18.70
2022-12-06T20:10:06.948Z,14.77
2022-12-06T20:12:52.270Z,13.95
2022-12-06T20:15:37.482Z,10.98
2022-12-06T20:18:23.007Z,12.05
2022-12-06T20:21:07.752Z,13.77
2022-12-06T20:23:53.316Z,11.93
2022-12-06T20:26:38.810Z,11.75
2022-12-06T20:29:23.885Z,13.75
2022-12-06T20:32:10.107Z,16.02
2022-12-06T20:34:55.003Z,14.90
2022-12-06T20:37:40.201Z,14.63
2022-12-06T20:40:31.085Z,16.23
2022-12-06T20:43:16.515Z,11.05
2022-12-06T20:46:11.630Z,17.00
2022-12-06T20:49:02.560Z,10.05
2022-12-06T20:51:52.926Z,10.40
2022-12-06T20:54:39.131Z,14.23
2022-12-06T20:57:24.791Z,17.95
2022-12-06T21:00:11.476Z,11.60
2022-12-06T21:02:56.991Z,13.70
2022-12-06T21:05:45.018Z,15.43
2022-12-06T21:08:30.991Z,13.93
2022-12-06T21:11:25.198Z,12.25
2022-12-06T21:14:12.539Z,10.52
2022-12-06T21:16:57.605Z,9.00
2022-12-06T21:19:42.767Z,11.70
2022-12-06T21:22:27.874Z,10.75
2022-12-06T21:25:12.985Z,7.78
2022-12-06T21:27:58.102Z,7.60
2022-12-06T21:30:48.804Z,9.05
2022-12-06T21:33:33.840Z,10.87
2022-12-06T21:36:18.933Z,9.50
2022-12-06T21:39:05.043Z,9.93
2022-12-06T21:41:50.609Z,13.20
2022-12-06T21:44:35.365Z,9.90
2022-12-06T21:47:20.554Z,11.40
2022-12-06T21:50:06.337Z,10.18
2022-12-06T21:52:54.103Z,7.20
2022-12-06T21:55:39.275Z,8.55
2022-12-06T21:58:24.792Z,12.48
2022-12-06T22:01:15.401Z,11.30
2022-12-06T22:04:02.887Z,13.63
2022-12-06T22:06:47.677Z,12.75
2022-12-06T22:09:33.020Z,11.80
2022-12-06T22:12:18.433Z,11.80
2022-12-06T22:15:04.079Z,11.20
2022-12-06T22:17:49.289Z,12.43
2022-12-06T22:20:35.441Z,11.52
2022-12-06T22:23:20.338Z,10.98
2022-12-06T22:26:07.666Z,8.60
2022-12-06T22:28:52.633Z,11.60
2022-12-06T22:31:38.103Z,12.82
2022-12-06T22:34:23.204Z,11.75
2022-12-06T22:37:08.449Z,12.70
2022-12-06T22:39:53.526Z,17.55
2022-12-06T22:42:38.754Z,6.20
2022-12-06T22:45:23.810Z,12.90
2022-12-06T22:48:08.847Z,15.50
2022-12-06T22:50:53.997Z,19.27
2022-12-06T22:53:40.738Z,18.00
2022-12-06T22:56:26.357Z,20.70
2022-12-06T22:59:11.291Z,15.82
2022-12-06T23:01:56.561Z,16.90
2022-12-06T23:04:41.767Z,15.30
2022-12-06T23:07:26.599Z,11.13
2022-12-06T23:10:11.861Z,14.53
2022-12-06T23:12:56.951Z,21.98
2022-12-06T23:15:41.849Z,24.15
2022-12-06T23:18:28.189Z,20.30
2022-12-06T23:21:15.213Z,23.30
2022-12-06T23:24:06.489Z,20.53
2022-12-06T23:26:57.750Z,24.13
2022-12-06T23:29:43.412Z,15.73
2022-12-06T23:32:29.902Z,22.30
2022-12-06T23:35:15.077Z,20.83
2022-12-06T23:38:00.247Z,25.10
2022-12-06T23:40:45.282Z,21.48
2022-12-06T23:43:30.398Z,19.65
2022-12-06T23:46:22.242Z,22.77
2022-12-06T23:49:07.744Z,20.55
2022-12-06T23:51:52.810Z,22.17
2022-12-06T23:54:37.905Z,19.67
2022-12-06T23:57:22.813Z,22.60
